Airfield :
LOGIN :

Register | Disclaimer

   EN    FR    IT 

 










Legend :    VFR   Marginal VFR   IFR   Intensive IFR   Very Intensive IFR
Visi :
Ceiling :
>= 8 km
>= 3000ft
5 to 8 km
1000 to 3000 ft
1500m to 5 km
500 to 1000 ft
800 to 1500m
200 to 500 ft
< 800m
< 200 ft
Symbols :   Thunderstorms  Fog  Heavy snow  Heavy precipitations  Wind > 20 kt
SIGMETs :     Misc.  Thunderstorms  Icing  Turbulence  Mountain Waves  Volcanic Ashes







- Airport Elevation : 33 ft
- IATA code : PLQ


EYPA - Palanga

CURRENT METAR :
  • 141750Z VRB01KT 9999 OVC049 08/07 Q1026 R01/2///95

EXPIRED METARs :
  • 141720Z 35002KT 9999 FEW013 OVC051 09/08 Q1026 R01/2///95
  • 141650Z VRB02KT 9999 SCT013 OVC052 09/08 Q1025 R01/2///95
  • 141620Z 35003KT 310V020 9999 BKN012 BKN026 09/08 Q1025 R01/2///95
  • 141550Z 35004KT 310V020 9999 OVC010 09/08 Q1025 R01/2///95
  • 141520Z VRB02KT 9999 BKN010 BKN033 09/08 Q1025 R01/2///95

TAF TAF EYPA
Valid from the 14 at 18:00 until the 15 at 18:00 UTC


141707Z 1418/1518 VRB05KT 5000 BR SCT005 BKN010
TEMPO 1500/1506 3000 BKN005
BECMG 1506/1507 8000
BECMG 1511/1513 OVC015
No reported NOTAMs for that airfield.



MET'MAP, your aeronautical weather chart ! - Copyright ORBIFLY December 2007 - Disclaimer

ORBIFLY MET'MAP TEAM :

Programming & Development : Alexandra Zaïnal
Concept & Development : Baudouin d'Aumeries
Co-Development & Prog : Marc-Olivier Méhu
Technical & hardware support : Manuel Goepfert

Contact : metmap@orbifly.com




SOURCES & CREDITS :

   NOAA